createdAt,value
2019-04-16T00:02:51.379Z,38.63
2019-04-16T00:06:04.424Z,43.10
2019-04-16T00:09:24.706Z,39.27
2019-04-16T00:12:31.479Z,33.93
2019-04-16T00:15:33.346Z,37.63
2019-04-16T00:18:35.351Z,42.53
2019-04-16T00:21:48.387Z,43.07
2019-04-16T00:24:50.449Z,40.67
2019-04-16T00:27:52.319Z,40.13
2019-04-16T00:30:54.234Z,36.47
2019-04-16T00:33:56.111Z,44.40
2019-04-16T00:36:58.016Z,42.10
2019-04-16T00:39:59.947Z,62.40
2019-04-16T00:43:02.040Z,55.20
2019-04-16T00:46:08.052Z,41.20
2019-04-16T00:49:09.155Z,47.67
2019-04-16T00:52:11.071Z,38.93
2019-04-16T00:55:14.578Z,34.97
2019-04-16T00:58:19.485Z,42.00
2019-04-16T01:01:20.820Z,34.67
2019-04-16T01:04:22.761Z,40.73
2019-04-16T01:07:24.699Z,41.97
2019-04-16T01:10:26.590Z,36.87
2019-04-16T01:13:28.635Z,40.10
2019-04-16T01:16:33.002Z,38.90
2019-04-16T01:19:34.466Z,41.97
2019-04-16T01:22:36.346Z,42.20
2019-04-16T01:25:38.318Z,42.87
2019-04-16T01:28:50.805Z,38.90
2019-04-16T01:32:00.711Z,38.43
2019-04-16T01:35:06.264Z,38.80
2019-04-16T01:38:16.008Z,42.13
2019-04-16T01:41:21.674Z,45.10
2019-04-16T01:44:23.076Z,43.13
2019-04-16T01:47:25.060Z,35.23
2019-04-16T01:50:27.116Z,36.33
2019-04-16T01:53:29.012Z,36.27
2019-04-16T01:56:31.023Z,38.90
2019-04-16T01:59:35.618Z,39.07
2019-04-16T02:02:36.844Z,38.77
2019-04-16T02:05:38.726Z,36.00
2019-04-16T02:08:40.702Z,40.67
2019-04-16T02:11:42.559Z,36.13
2019-04-16T02:14:44.585Z,44.83
2019-04-16T02:17:46.540Z,43.83
2019-04-16T02:20:48.443Z,39.60
2019-04-16T02:23:50.418Z,41.97
2019-04-16T02:26:54.802Z,43.90
2019-04-16T02:29:58.513Z,43.53
2019-04-16T02:33:00.537Z,40.97
2019-04-16T02:36:02.753Z,40.27
2019-04-16T02:39:07.307Z,39.80
2019-04-16T02:42:09.236Z,35.90
2019-04-16T02:45:12.382Z,38.73
2019-04-16T02:48:16.646Z,36.80
2019-04-16T02:51:29.114Z,69.00
2019-04-16T02:54:34.476Z,67.57
2019-04-16T02:57:44.616Z,46.97
2019-04-16T03:00:50.474Z,37.70
2019-04-16T03:04:02.995Z,44.23
2019-04-16T03:07:05.002Z,40.70
2019-04-16T03:10:12.286Z,36.27
2019-04-16T03:13:11.625Z,42.20
2019-04-16T03:16:21.226Z,59.37
2019-04-16T03:19:25.075Z,119.83
2019-04-16T03:22:26.981Z,63.17
2019-04-16T03:25:29.625Z,47.57
2019-04-16T03:28:31.661Z,49.07
2019-04-16T03:31:33.560Z,49.67
2019-04-16T03:34:35.465Z,48.47
2019-04-16T03:37:37.408Z,51.10
2019-04-16T03:40:39.348Z,68.60
2019-04-16T03:43:41.344Z,59.37
2019-04-16T03:46:45.970Z,51.47
2019-04-16T03:49:47.199Z,57.40
2019-04-16T03:52:49.200Z,45.33
2019-04-16T03:55:51.179Z,40.90
2019-04-16T03:58:54.110Z,46.83
2019-04-16T04:01:56.058Z,36.03
2019-04-16T04:05:01.664Z,37.53
2019-04-16T04:08:02.238Z,41.53
2019-04-16T04:11:09.057Z,40.40
2019-04-16T04:14:08.026Z,37.60
2019-04-16T04:17:10.350Z,40.53
2019-04-16T04:20:14.666Z,37.70
2019-04-16T04:23:17.186Z,87.20
2019-04-16T04:26:19.460Z,83.43
2019-04-16T04:29:24.774Z,59.23
2019-04-16T04:32:25.343Z,49.00
2019-04-16T04:35:27.258Z,43.60
2019-04-16T04:38:29.237Z,45.30
2019-04-16T04:41:31.773Z,35.03
2019-04-16T04:44:36.949Z,37.93
2019-04-16T04:47:37.702Z,37.43
2019-04-16T04:50:39.609Z,35.00
2019-04-16T04:53:41.548Z,36.10
2019-04-16T04:56:43.436Z,32.80
2019-04-16T04:59:45.473Z,40.03
2019-04-16T05:02:48.382Z,31.37
2019-04-16T05:05:53.370Z,36.83
2019-04-16T05:08:57.576Z,31.17
2019-04-16T05:11:59.881Z,37.47
2019-04-16T05:15:03.900Z,44.63
2019-04-16T05:18:06.130Z,30.43
2019-04-16T05:21:09.684Z,31.40
2019-04-16T05:24:11.993Z,33.97
2019-04-16T05:27:13.906Z,37.23
2019-04-16T05:30:20.420Z,36.33
2019-04-16T05:33:19.827Z,33.60
2019-04-16T05:36:22.126Z,33.30
2019-04-16T05:39:28.371Z,30.87
2019-04-16T05:42:30.274Z,32.60
2019-04-16T05:45:34.531Z,33.23
2019-04-16T05:48:36.509Z,35.23
2019-04-16T05:51:38.695Z,34.43
2019-04-16T05:55:01.574Z,36.20
2019-04-16T05:58:04.006Z,39.80
2019-04-16T06:01:13.115Z,36.47
2019-04-16T06:04:14.453Z,34.60
2019-04-16T06:07:16.384Z,29.40
2019-04-16T06:10:19.197Z,35.67
2019-04-16T06:13:29.352Z,31.20
2019-04-16T06:16:53.403Z,35.33
2019-04-16T06:20:01.916Z,40.27
2019-04-16T06:23:06.933Z,41.13
2019-04-16T06:26:27.588Z,31.53
2019-04-16T06:29:47.113Z,43.43
2019-04-16T06:32:51.393Z,44.47
2019-04-16T06:35:55.442Z,39.70
2019-04-16T06:39:01.982Z,34.47
2019-04-16T06:42:22.505Z,41.30
2019-04-16T06:45:28.115Z,41.33
2019-04-16T06:48:49.673Z,42.47
2019-04-16T06:51:53.565Z,46.17
2019-04-16T06:55:06.558Z,41.00
2019-04-16T06:58:12.587Z,38.30
2019-04-16T07:01:37.341Z,37.30
2019-04-16T07:04:42.781Z,45.37
2019-04-16T07:07:47.022Z,40.87
2019-04-16T07:10:56.583Z,38.80
2019-04-16T07:13:58.610Z,39.40
2019-04-16T07:17:00.904Z,42.03
2019-04-16T07:20:06.703Z,37.97
2019-04-16T07:23:08.774Z,47.73
2019-04-16T07:26:13.861Z,35.80
2019-04-16T07:29:16.437Z,36.23
2019-04-16T07:32:35.653Z,40.33
2019-04-16T07:35:48.600Z,38.13
2019-04-16T07:39:05.020Z,32.20
2019-04-16T07:42:14.127Z,38.87
2019-04-16T07:45:35.665Z,41.60
2019-04-16T07:48:45.372Z,34.63
2019-04-16T07:51:55.246Z,38.43
2019-04-16T07:54:59.063Z,27.07
2019-04-16T07:58:01.093Z,18.07
2019-04-16T08:01:03.259Z,22.07
2019-04-16T08:04:05.232Z,18.53
2019-04-16T08:07:07.182Z,19.97
2019-04-16T08:10:09.742Z,15.10
2019-04-16T08:13:19.170Z,14.87
2019-04-16T08:16:21.165Z,13.40
2019-04-16T08:19:36.046Z,10.83
2019-04-16T08:22:27.126Z,9.30
2019-04-16T08:25:33.907Z,11.40
2019-04-16T08:28:37.300Z,9.97
2019-04-16T08:31:44.487Z,10.70
2019-04-16T08:34:44.936Z,10.90
2019-04-16T08:37:49.128Z,11.93
2019-04-16T08:40:50.935Z,8.57
2019-04-16T08:43:52.913Z,11.87
2019-04-16T08:46:54.936Z,8.53
2019-04-16T08:49:57.555Z,7.90
2019-04-16T08:52:59.477Z,9.50
2019-04-16T08:56:01.532Z,9.77
2019-04-16T08:59:03.407Z,7.33
2019-04-16T09:02:05.485Z,9.37
2019-04-16T09:05:11.322Z,9.73
2019-04-16T09:08:22.768Z,8.77
2019-04-16T09:11:24.813Z,9.33
2019-04-16T09:14:28.619Z,7.67
2019-04-16T09:17:32.378Z,9.63
2019-04-16T09:20:37.783Z,10.47
2019-04-16T09:23:39.761Z,10.17
2019-04-16T09:26:43.861Z,11.00
2019-04-16T09:29:54.075Z,9.07
2019-04-16T09:33:00.719Z,13.97
2019-04-16T09:36:06.591Z,8.73
2019-04-16T09:39:16.592Z,8.63
2019-04-16T09:42:19.270Z,12.50
2019-04-16T09:45:24.279Z,8.90
2019-04-16T09:48:25.214Z,10.97
2019-04-16T09:51:27.232Z,8.67
2019-04-16T09:54:29.153Z,13.33
2019-04-16T09:57:32.429Z,10.23
2019-04-16T10:00:39.515Z,10.50
2019-04-16T10:03:43.104Z,12.73
2019-04-16T10:06:45.060Z,9.27
2019-04-16T10:09:46.974Z,8.23
2019-04-16T10:12:48.908Z,7.83
2019-04-16T10:15:50.820Z,6.07
2019-04-16T10:18:52.771Z,7.50
2019-04-16T10:21:54.829Z,8.93
2019-04-16T10:25:07.861Z,9.10
2019-04-16T10:28:14.613Z,11.13
2019-04-16T10:31:18.426Z,7.53
2019-04-16T10:34:20.535Z,9.53
2019-04-16T10:37:22.443Z,8.93
2019-04-16T10:40:26.527Z,10.97
2019-04-16T10:43:45.459Z,9.30
2019-04-16T10:46:52.159Z,12.93
2019-04-16T10:49:55.885Z,9.57
2019-04-16T10:53:02.427Z,9.27
2019-04-16T10:56:22.894Z,11.50
2019-04-16T10:59:26.698Z,11.20
2019-04-16T11:02:31.755Z,8.47
2019-04-16T11:05:38.270Z,7.70
2019-04-16T11:08:40.233Z,7.80
2019-04-16T11:11:42.198Z,8.07
2019-04-16T11:14:44.258Z,10.23
2019-04-16T11:17:46.138Z,11.80
2019-04-16T11:20:48.068Z,9.00
2019-04-16T11:23:49.980Z,8.67
2019-04-16T11:26:51.848Z,8.57
2019-04-16T11:29:53.793Z,8.33
2019-04-16T11:32:57.962Z,19.83
2019-04-16T11:36:00.005Z,9.73
2019-04-16T11:39:01.997Z,8.77
2019-04-16T11:42:04.981Z,12.43
2019-04-16T11:45:07.739Z,11.47
2019-04-16T11:48:09.683Z,10.80
2019-04-16T11:51:11.679Z,10.20
2019-04-16T11:54:13.806Z,9.70
2019-04-16T11:57:16.340Z,9.20
2019-04-16T12:00:26.343Z,11.97
2019-04-16T12:03:47.314Z,11.73
2019-04-16T12:06:54.216Z,9.73
2019-04-16T12:10:14.988Z,11.13
2019-04-16T12:13:21.959Z,12.60
2019-04-16T12:16:38.113Z,11.07
2019-04-16T12:19:58.600Z,11.37
2019-04-16T12:23:02.447Z,8.70
2019-04-16T12:26:12.571Z,11.10
2019-04-16T12:29:25.644Z,14.93
2019-04-16T12:32:32.540Z,15.17
2019-04-16T12:35:36.388Z,27.03
2019-04-16T12:38:46.086Z,11.43
2019-04-16T12:41:59.874Z,13.07
2019-04-16T12:45:19.151Z,11.83
2019-04-16T12:48:39.685Z,8.83
2019-04-16T12:51:43.412Z,20.37
2019-04-16T12:55:02.556Z,19.00
2019-04-16T12:58:06.392Z,12.77
2019-04-16T13:01:19.925Z,27.93
2019-04-16T13:04:23.976Z,12.10
2019-04-16T13:07:30.601Z,14.40
2019-04-16T13:10:34.446Z,9.10
2019-04-16T13:13:55.237Z,12.20
2019-04-16T13:17:05.030Z,8.60
2019-04-16T13:20:10.899Z,10.50
2019-04-16T13:23:31.251Z,11.03
2019-04-16T13:26:45.199Z,13.53
2019-04-16T13:29:47.102Z,12.73
2019-04-16T13:32:49.044Z,7.33
2019-04-16T13:35:50.995Z,9.40
2019-04-16T13:38:54.793Z,10.83
2019-04-16T13:41:56.739Z,9.13
2019-04-16T13:45:15.276Z,10.10
2019-04-16T13:48:15.940Z,9.80
2019-04-16T13:51:14.867Z,11.63
2019-04-16T13:54:17.592Z,12.33
2019-04-16T13:57:21.472Z,11.20
2019-04-16T14:00:28.259Z,11.33
2019-04-16T14:03:30.266Z,8.20
2019-04-16T14:06:32.429Z,8.40
2019-04-16T14:09:34.473Z,10.57
2019-04-16T14:12:42.124Z,15.80
2019-04-16T14:15:44.838Z,7.87
2019-04-16T14:18:47.081Z,9.93
2019-04-16T14:21:48.968Z,7.67
2019-04-16T14:24:50.913Z,9.73
2019-04-16T14:27:55.368Z,7.63
2019-04-16T14:30:56.799Z,11.37
2019-04-16T14:34:15.954Z,11.87
2019-04-16T14:37:18.588Z,8.33
2019-04-16T14:40:24.235Z,8.10
2019-04-16T14:43:29.537Z,9.43
2019-04-16T14:46:31.863Z,7.67
2019-04-16T14:49:33.930Z,8.53
2019-04-16T14:52:35.884Z,9.40
2019-04-16T14:55:58.760Z,9.13
2019-04-16T14:59:03.443Z,10.57
2019-04-16T15:02:08.638Z,9.40
2019-04-16T15:05:21.718Z,8.77
2019-04-16T15:08:31.280Z,9.93
2019-04-16T15:11:51.428Z,14.13
2019-04-16T15:14:55.130Z,9.77
2019-04-16T15:18:08.165Z,12.67
2019-04-16T15:21:30.300Z,10.70
2019-04-16T15:24:50.894Z,29.20
2019-04-16T15:28:06.938Z,8.60
2019-04-16T15:31:27.324Z,9.57
2019-04-16T15:34:43.017Z,31.60
2019-04-16T15:37:57.912Z,15.10
2019-04-16T15:41:18.420Z,8.93
2019-04-16T15:44:24.659Z,9.27
2019-04-16T15:47:32.374Z,13.10
2019-04-16T15:50:39.517Z,7.83
2019-04-16T15:53:50.564Z,11.50
2019-04-16T15:57:11.614Z,9.50
2019-04-16T16:00:32.721Z,8.87
2019-04-16T16:03:36.974Z,8.90
2019-04-16T16:06:48.761Z,8.40
2019-04-16T16:09:52.594Z,7.90
2019-04-16T16:12:54.800Z,9.13
2019-04-16T16:15:56.762Z,8.03
2019-04-16T16:18:58.747Z,7.03
2019-04-16T16:22:00.665Z,10.87
2019-04-16T16:25:06.096Z,9.20
2019-04-16T16:28:08.197Z,7.97
2019-04-16T16:31:10.175Z,10.53
2019-04-16T16:34:12.108Z,16.83
2019-04-16T16:37:14.170Z,13.50
2019-04-16T16:40:16.233Z,16.47
2019-04-16T16:43:18.396Z,6.80
2019-04-16T16:46:55.700Z,9.40
2019-04-16T16:49:44.527Z,11.67
2019-04-16T16:52:54.467Z,15.33
2019-04-16T16:55:59.113Z,8.97
2019-04-16T16:59:05.912Z,10.47
2019-04-16T17:02:18.642Z,13.43
2019-04-16T17:05:25.380Z,16.97
2019-04-16T17:08:30.168Z,11.63
2019-04-16T17:11:31.167Z,8.17
2019-04-16T17:14:36.460Z,15.57
2019-04-16T17:17:37.250Z,13.93
2019-04-16T17:20:41.337Z,12.53
2019-04-16T17:23:43.160Z,12.47
2019-04-16T17:26:47.000Z,12.77
2019-04-16T17:29:49.721Z,19.77
2019-04-16T17:32:52.792Z,16.07
2019-04-16T17:35:54.905Z,18.60
2019-04-16T17:38:56.877Z,14.13
2019-04-16T17:42:05.046Z,17.00
2019-04-16T17:45:26.091Z,16.87
2019-04-16T17:48:39.123Z,14.70
2019-04-16T17:51:48.381Z,16.50
2019-04-16T17:54:59.088Z,19.63
2019-04-16T17:58:09.346Z,22.03
2019-04-16T18:01:15.094Z,35.47
2019-04-16T18:04:37.527Z,30.40
2019-04-16T18:07:41.308Z,16.37
2019-04-16T18:10:47.828Z,17.20
2019-04-16T18:13:57.380Z,36.60
2019-04-16T18:17:04.595Z,53.23
2019-04-16T18:20:27.111Z,59.13
2019-04-16T18:23:47.825Z,23.47
2019-04-16T18:27:08.259Z,21.60
2019-04-16T18:30:14.210Z,22.97
2019-04-16T18:33:19.777Z,24.67
2019-04-16T18:36:23.504Z,23.00
2019-04-16T18:39:37.216Z,20.33
2019-04-16T18:42:50.257Z,19.93
2019-04-16T18:46:08.655Z,30.07
2019-04-16T18:49:18.240Z,42.13
2019-04-16T18:52:20.201Z,39.63
2019-04-16T18:55:22.867Z,32.97
2019-04-16T18:58:26.514Z,30.27
2019-04-16T19:01:32.648Z,54.33
2019-04-16T19:04:35.193Z,40.80
2019-04-16T19:07:37.158Z,21.57
2019-04-16T19:10:39.682Z,21.43
2019-04-16T19:13:42.785Z,25.17
2019-04-16T19:16:47.704Z,17.47
2019-04-16T19:19:53.286Z,26.67
2019-04-16T19:22:55.283Z,24.90
2019-04-16T19:25:57.459Z,27.13
2019-04-16T19:28:59.746Z,16.23
2019-04-16T19:32:03.477Z,17.47
2019-04-16T19:35:10.111Z,17.97
2019-04-16T19:38:12.040Z,17.87
2019-04-16T19:41:14.396Z,16.53
2019-04-16T19:44:16.356Z,18.93
2019-04-16T19:47:18.355Z,15.90
2019-04-16T19:50:20.951Z,15.73
2019-04-16T19:53:24.769Z,18.17
2019-04-16T19:56:27.366Z,20.07
2019-04-16T19:59:29.360Z,19.53
2019-04-16T20:02:33.957Z,13.83
2019-04-16T20:05:36.112Z,13.90
2019-04-16T20:08:39.963Z,23.03
2019-04-16T20:11:43.590Z,17.20
2019-04-16T20:14:47.499Z,19.60
2019-04-16T20:17:52.487Z,18.43
2019-04-16T20:20:55.395Z,19.63
2019-04-16T20:23:57.565Z,14.73
2019-04-16T20:27:04.886Z,17.20
2019-04-16T20:30:06.234Z,17.17
2019-04-16T20:33:08.498Z,21.17
2019-04-16T20:36:10.458Z,18.80
2019-04-16T20:39:12.322Z,17.83
2019-04-16T20:42:15.833Z,16.50
2019-04-16T20:45:20.134Z,21.23
2019-04-16T20:48:22.083Z,18.33
2019-04-16T20:51:26.535Z,17.77
2019-04-16T20:54:30.629Z,18.17
2019-04-16T20:57:32.665Z,20.63
2019-04-16T21:00:42.286Z,17.83
2019-04-16T21:03:43.905Z,15.10
2019-04-16T21:06:45.880Z,16.13
2019-04-16T21:09:47.832Z,17.60
2019-04-16T21:12:49.805Z,13.57
2019-04-16T21:15:51.743Z,14.47
2019-04-16T21:18:53.656Z,19.43
2019-04-16T21:21:57.952Z,21.70
2019-04-16T21:24:59.620Z,16.20
2019-04-16T21:28:15.631Z,19.37
2019-04-16T21:31:19.346Z,17.60
2019-04-16T21:34:29.648Z,18.10
2019-04-16T21:37:34.488Z,23.53
2019-04-16T21:40:36.522Z,19.00
2019-04-16T21:43:39.713Z,20.13
2019-04-16T21:46:42.350Z,17.40
2019-04-16T21:49:45.759Z,18.83
2019-04-16T21:52:48.242Z,21.70
2019-04-16T21:55:50.183Z,15.93
2019-04-16T21:58:52.203Z,17.30
2019-04-16T22:01:54.523Z,19.10
2019-04-16T22:04:57.537Z,21.17
2019-04-16T22:07:59.576Z,23.07
2019-04-16T22:11:01.798Z,19.17
2019-04-16T22:14:03.856Z,21.87
2019-04-16T22:17:05.824Z,23.03
2019-04-16T22:20:07.929Z,20.43
2019-04-16T22:23:09.931Z,19.87
2019-04-16T22:26:11.880Z,32.63
2019-04-16T22:29:15.645Z,18.73
2019-04-16T22:32:17.727Z,25.90
2019-04-16T22:35:19.824Z,27.97
2019-04-16T22:38:21.812Z,28.77
2019-04-16T22:41:34.596Z,41.17
2019-04-16T22:44:38.336Z,43.70
2019-04-16T22:47:42.099Z,49.20
2019-04-16T22:50:43.997Z,68.83
2019-04-16T22:53:46.485Z,64.10
2019-04-16T22:57:01.921Z,60.67
2019-04-16T23:00:11.751Z,77.17
2019-04-16T23:03:16.634Z,85.63
2019-04-16T23:06:20.076Z,30.93
2019-04-16T23:09:23.906Z,30.17
2019-04-16T23:12:28.045Z,29.13
2019-04-16T23:15:29.638Z,22.27
2019-04-16T23:18:31.529Z,26.47
2019-04-16T23:21:33.398Z,17.17
2019-04-16T23:24:35.435Z,22.67
2019-04-16T23:27:38.191Z,23.13
2019-04-16T23:30:40.956Z,25.07
2019-04-16T23:33:42.896Z,40.57
2019-04-16T23:36:48.571Z,21.27
2019-04-16T23:39:48.627Z,29.10
2019-04-16T23:42:54.876Z,63.93
2019-04-16T23:46:15.478Z,66.00
2019-04-16T23:49:34.719Z,97.20
2019-04-16T23:52:38.480Z,125.53
2019-04-16T23:56:00.331Z,116.97
2019-04-16T23:59:13.410Z,25.73
